Time;durP1;ratioP1;P1;durP2;ratioP2;P2;SDS_P1;SDS_P2;PMS_P1;PMS_P2;Temp;Humidity;BMP_temperature;BMP_pressure;BME280_temperature;BME280_humidity;BME280_pressure;Samples;Min_cycle;Max_cycle;Signal;HPM_P1;HPM_P2
2023/08/14 00:02:10;;;;;;;8.73;3.38;;;;;;;19.85;71.78;100938.75;5038675;28;20073;-66
2023/08/14 00:04:38;;;;;;;10.52;3.75;;;;;;;19.80;72.15;100947.19;5010652;28;20554;-69
2023/08/14 00:07:05;;;;;;;7.07;3.42;;;;;;;19.77;72.26;100949.28;4992152;28;20103;-67
2023/08/14 00:09:33;;;;;;;5.35;3.63;;;;;;;19.73;72.85;100946.09;5002835;28;20058;-67
2023/08/14 00:12:02;;;;;;;10.25;4.00;;;;;;;19.71;73.17;100942.69;5015135;28;20072;-67
2023/08/14 00:14:29;;;;;;;6.60;3.50;;;;;;;19.68;73.19;100949.19;5018652;28;20512;-68
2023/08/14 00:16:56;;;;;;;6.90;3.47;;;;;;;19.68;73.06;100951.03;5013699;28;20049;-68
2023/08/14 00:19:24;;;;;;;10.45;4.30;;;;;;;19.65;73.89;100944.13;5014699;28;20130;-68
2023/08/14 00:21:51;;;;;;;5.05;3.47;;;;;;;19.63;73.74;100955.91;5014015;28;20055;-68
2023/08/14 00:24:19;;;;;;;9.52;3.35;;;;;;;19.61;74.61;100942.72;5018749;28;20053;-68
2023/08/14 00:26:46;;;;;;;9.07;3.65;;;;;;;19.58;74.63;100948.28;4995089;28;20045;-65
2023/08/14 00:29:14;;;;;;;10.13;3.92;;;;;;;19.57;74.61;100948.44;5013678;28;20069;-68
2023/08/14 00:31:41;;;;;;;9.95;3.75;;;;;;;19.56;75.25;100949.44;5039898;28;20057;-69
2023/08/14 00:34:09;;;;;;;13.65;4.63;;;;;;;19.54;75.12;100951.38;5011656;28;20140;-67
2023/08/14 00:36:36;;;;;;;9.88;4.18;;;;;;;19.53;75.32;100944.38;5018077;28;20040;-68
2023/08/14 00:39:04;;;;;;;8.32;4.45;;;;;;;19.53;75.57;100939.03;5036569;28;20489;-66
2023/08/14 00:41:31;;;;;;;7.38;4.45;;;;;;;19.52;75.82;100942.69;5011642;28;20100;-66
2023/08/14 00:43:59;;;;;;;8.90;4.50;;;;;;;19.51;76.05;100944.50;5028178;28;20077;-71
2023/08/14 00:46:26;;;;;;;9.63;3.80;;;;;;;19.52;75.87;100943.53;5024204;28;20045;-70
2023/08/14 00:48:54;;;;;;;11.48;4.40;;;;;;;19.54;76.29;100938.03;4998050;28;20381;-71
2023/08/14 00:51:22;;;;;;;9.65;3.97;;;;;;;19.55;76.35;100945.09;5030856;28;20047;-70
2023/08/14 00:53:50;;;;;;;9.27;4.82;;;;;;;19.57;76.53;100937.75;5017311;28;20077;-72
2023/08/14 00:56:19;;;;;;;7.95;4.00;;;;;;;19.59;76.99;100930.47;4996793;28;20057;-73
2023/08/14 00:58:50;;;;;;;7.70;3.83;;;;;;;19.61;77.36;100937.38;5013166;28;20061;-72
2023/08/14 01:01:18;;;;;;;10.90;4.15;;;;;;;19.64;77.68;100928.25;5000562;28;20065;-70
2023/08/14 01:03:47;;;;;;;7.15;4.00;;;;;;;19.63;77.58;100931.88;5013414;28;20061;-72
2023/08/14 01:06:15;;;;;;;8.73;3.95;;;;;;;19.63;77.80;100931.88;4995336;28;20069;-69
2023/08/14 01:08:43;;;;;;;7.55;3.80;;;;;;;19.60;78.94;100933.03;5016435;28;20486;-71
2023/08/14 01:11:28;;;;;;;10.07;4.70;;;;;;;19.56;79.28;100934.25;4998966;28;20504;-71
2023/08/14 01:14:17;;;;;;;7.22;3.92;;;;;;;19.56;80.02;100942.25;4980507;28;20123;-70
2023/08/14 01:16:50;;;;;;;8.50;4.15;;;;;;;19.56;80.98;100938.75;5006159;28;20072;-71
2023/08/14 01:19:22;;;;;;;8.50;4.85;;;;;;;19.55;80.83;100932.56;5024805;28;20045;-69
2023/08/14 01:22:10;;;;;;;8.63;4.47;;;;;;;19.52;81.89;100945.34;4997782;28;20139;-68
2023/08/14 01:25:28;;;;;;;7.78;4.38;;;;;;;19.45;82.70;100943.25;5023119;28;20083;-68
2023/08/14 01:28:20;;;;;;;8.38;4.10;;;;;;;19.40;82.86;100934.78;5008771;28;20275;-67
2023/08/14 01:30:48;;;;;;;5.93;4.28;;;;;;;19.39;83.29;100934.94;5012354;28;20404;-68
2023/08/14 01:33:15;;;;;;;7.20;4.55;;;;;;;19.38;84.54;100936.78;5007155;28;20151;-68
2023/08/14 01:35:46;;;;;;;8.02;3.80;;;;;;;19.37;84.88;100932.44;5015275;28;20091;-67
2023/08/14 01:38:22;;;;;;;8.95;4.90;;;;;;;19.36;85.48;100944.09;4999326;28;20100;-68
2023/08/14 01:40:52;;;;;;;8.88;3.97;;;;;;;19.33;85.85;100940.84;5027242;28;20045;-66
2023/08/14 01:43:26;;;;;;;5.72;4.20;;;;;;;19.31;86.33;100945.47;5015838;28;20095;-66
2023/08/14 01:45:54;;;;;;;8.70;4.18;;;;;;;19.27;86.42;100947.56;5013994;28;20053;-66
2023/08/14 01:48:26;;;;;;;5.03;3.90;;;;;;;19.26;87.36;100945.06;5014034;28;20484;-67
2023/08/14 01:50:55;;;;;;;8.82;3.92;;;;;;;19.22;87.68;100941.81;5033146;28;20041;-69
2023/08/14 01:53:23;;;;;;;10.40;4.68;;;;;;;19.20;87.87;100935.78;5020278;28;20041;-67
2023/08/14 01:55:50;;;;;;;6.50;4.40;;;;;;;19.18;88.27;100940.41;5017505;28;20134;-69
2023/08/14 01:58:17;;;;;;;7.32;4.65;;;;;;;19.19;89.39;100934.09;4986822;28;20049;-68
2023/08/14 02:00:45;;;;;;;4.55;3.90;;;;;;;19.16;89.48;100937.88;5039447;28;20079;-68
2023/08/14 02:03:12;;;;;;;5.95;4.28;;;;;;;19.15;89.30;100935.34;5019128;28;20487;-68
2023/08/14 02:05:40;;;;;;;9.02;4.35;;;;;;;19.12;89.91;100931.13;5002739;28;20088;-67
2023/08/14 02:08:07;;;;;;;8.98;3.92;;;;;;;19.11;90.03;100936.59;5037710;28;20185;-68
2023/08/14 02:10:34;;;;;;;10.55;4.35;;;;;;;19.08;90.32;100931.53;5038338;28;20542;-68
2023/08/14 02:13:02;;;;;;;6.75;4.38;;;;;;;19.04;90.71;100924.78;5008275;28;20562;-68
2023/08/14 02:15:29;;;;;;;8.13;4.75;;;;;;;19.02;90.85;100922.25;5036427;28;20089;-67
2023/08/14 02:17:57;;;;;;;7.75;4.68;;;;;;;19.00;92.04;100928.72;5034019;28;20138;-67
2023/08/14 02:20:25;;;;;;;9.60;4.40;;;;;;;18.97;92.89;100927.19;5011989;28;20107;-66
2023/08/14 02:22:52;;;;;;;7.15;4.93;;;;;;;18.96;92.30;100925.50;5014175;28;20048;-67
2023/08/14 02:25:20;;;;;;;6.28;3.53;;;;;;;18.93;92.30;100929.28;5015996;28;20059;-68
2023/08/14 02:27:47;;;;;;;7.75;4.63;;;;;;;18.91;92.61;100927.69;5001205;28;20061;-68
2023/08/14 02:30:15;;;;;;;5.55;4.65;;;;;;;18.88;92.81;100928.00;5031964;28;20058;-68
2023/08/14 02:32:42;;;;;;;8.20;4.53;;;;;;;18.85;92.74;100925.59;5017146;28;20049;-68
2023/08/14 02:35:10;;;;;;;9.23;4.70;;;;;;;18.83;93.14;100924.91;5018335;28;20044;-68
2023/08/14 02:37:38;;;;;;;7.10;4.30;;;;;;;18.80;93.66;100922.50;5017265;28;20054;-66
2023/08/14 02:40:07;;;;;;;9.07;4.38;;;;;;;18.77;93.71;100928.09;5012281;28;20477;-68
2023/08/14 02:42:34;;;;;;;8.05;4.65;;;;;;;18.72;94.14;100932.00;5009758;28;20440;-68
2023/08/14 02:45:01;;;;;;;7.22;4.68;;;;;;;18.68;94.75;100927.88;4981878;28;20102;-68
2023/08/14 02:47:29;;;;;;;6.45;4.68;;;;;;;18.65;94.66;100930.00;5014320;28;20054;-69
2023/08/14 02:49:57;;;;;;;6.47;4.35;;;;;;;18.64;94.57;100933.63;5015442;28;20444;-69
2023/08/14 02:52:24;;;;;;;4.82;4.10;;;;;;;18.63;94.45;100934.63;5029947;28;20115;-68
2023/08/14 02:54:52;;;;;;;8.50;4.93;;;;;;;18.61;95.01;100934.75;5031654;28;20046;-68
2023/08/14 02:57:19;;;;;;;7.63;4.03;;;;;;;18.59;95.07;100936.69;5010685;28;20057;-67
2023/08/14 02:59:47;;;;;;;9.55;4.47;;;;;;;18.57;95.81;100935.16;5032743;28;20107;-67
2023/08/14 03:02:14;;;;;;;8.23;4.90;;;;;;;18.54;95.47;100930.94;5001116;28;20107;-67
2023/08/14 03:04:42;;;;;;;6.70;4.20;;;;;;;18.53;96.28;100926.59;5011068;28;20084;-66
2023/08/14 03:07:10;;;;;;;7.93;3.78;;;;;;;18.50;96.36;100929.50;5014526;28;20353;-66
2023/08/14 03:09:37;;;;;;;6.70;3.83;;;;;;;18.47;96.20;100927.13;5012655;28;20058;-67
2023/08/14 03:12:05;;;;;;;6.35;4.00;;;;;;;18.45;96.37;100934.41;5030452;28;20095;-67
2023/08/14 03:14:32;;;;;;;7.45;4.18;;;;;;;18.44;96.55;100932.72;5011996;28;20531;-68
2023/08/14 03:16:59;;;;;;;7.47;4.50;;;;;;;18.41;96.36;100932.97;5011013;28;20045;-67
2023/08/14 03:19:27;;;;;;;6.53;4.43;;;;;;;18.38;96.43;100938.59;5029869;28;20056;-68
2023/08/14 03:21:54;;;;;;;8.55;4.55;;;;;;;18.34;96.86;100939.84;5034041;28;20368;-65
2023/08/14 03:24:22;;;;;;;10.63;4.30;;;;;;;18.32;96.84;100944.44;5018926;28;20103;-66
2023/08/14 03:26:50;;;;;;;5.47;3.95;;;;;;;18.29;97.27;100948.22;5032362;28;20041;-66
2023/08/14 03:30:07;;;;;;;8.43;4.38;;;;;;;18.25;97.67;100940.63;5032980;28;20053;-67
2023/08/14 03:33:28;;;;;;;9.52;4.03;;;;;;;18.20;97.57;100938.38;5014728;28;20033;-66
2023/08/14 03:35:56;;;;;;;6.68;4.30;;;;;;;18.17;97.27;100936.78;5018717;28;20491;-67
2023/08/14 03:38:23;;;;;;;8.10;4.50;;;;;;;18.16;97.81;100931.59;5017697;28;20100;-66
2023/08/14 03:40:51;;;;;;;8.38;5.10;;;;;;;18.13;98.26;100940.69;5014208;28;20099;-66
2023/08/14 03:43:18;;;;;;;8.15;4.47;;;;;;;18.10;98.02;100940.09;5037301;28;20115;-66
2023/08/14 03:45:45;;;;;;;7.55;4.53;;;;;;;18.07;98.92;100935.91;5031104;28;20126;-67
2023/08/14 03:48:13;;;;;;;9.93;4.78;;;;;;;18.04;99.01;100935.31;5034835;28;20103;-70
2023/08/14 03:50:44;;;;;;;9.15;4.65;;;;;;;18.03;99.30;100939.81;5022931;28;20041;-68
2023/08/14 03:53:12;;;;;;;7.22;4.70;;;;;;;18.00;99.82;100940.06;5013892;28;20037;-67
2023/08/14 03:55:41;;;;;;;5.57;4.38;;;;;;;17.97;99.64;100940.34;5004352;28;20056;-68
2023/08/14 03:58:09;;;;;;;7.85;4.18;;;;;;;17.96;100.00;100949.28;4996020;28;20648;-69
2023/08/14 04:00:36;;;;;;;4.93;4.00;;;;;;;17.94;100.00;100941.44;5029631;28;20049;-69
2023/08/14 04:03:04;;;;;;;9.48;4.90;;;;;;;17.95;99.84;100939.59;5017597;28;20063;-69
2023/08/14 04:05:37;;;;;;;7.63;4.50;;;;;;;17.94;99.92;100940.59;5014732;28;20049;-68
2023/08/14 04:08:05;;;;;;;7.18;4.45;;;;;;;17.95;99.92;100937.78;5016579;28;20042;-69
2023/08/14 04:10:33;;;;;;;7.10;4.32;;;;;;;17.96;100.00;100935.94;5034438;28;20049;-69
2023/08/14 04:13:00;;;;;;;8.45;4.95;;;;;;;17.95;100.00;100937.78;5011248;28;20052;-69
2023/08/14 04:15:28;;;;;;;9.55;4.15;;;;;;;17.96;99.93;100939.47;5018472;28;20511;-69
2023/08/14 04:17:56;;;;;;;6.00;4.70;;;;;;;17.97;99.74;100940.34;5012368;28;20049;-70
2023/08/14 04:23:16;;;;;;;8.77;5.20;;;;;;;18.01;100.00;100935.56;5004003;28;20064;-68
2023/08/14 04:25:43;;;;;;;10.60;4.80;;;;;;;18.02;100.00;100943.44;5030400;28;20130;-67
2023/08/14 04:28:11;;;;;;;8.98;4.15;;;;;;;18.06;99.76;100950.19;5024440;28;20072;-68
2023/08/14 04:30:38;;;;;;;6.80;4.78;;;;;;;18.10;99.47;100946.31;5023603;28;20148;-67
2023/08/14 04:33:05;;;;;;;8.93;4.32;;;;;;;18.16;99.73;100936.94;5016674;28;20095;-68
2023/08/14 04:35:33;;;;;;;9.70;4.53;;;;;;;18.20;99.15;100941.88;5019373;28;20065;-67
2023/08/14 04:38:00;;;;;;;7.10;4.68;;;;;;;18.27;99.13;100941.31;5030580;28;20096;-67
2023/08/14 04:40:28;;;;;;;13.07;5.10;;;;;;;18.31;98.50;100942.75;5023959;28;20053;-70
2023/08/14 04:42:55;;;;;;;8.30;4.72;;;;;;;18.35;98.17;100949.50;5028862;28;20061;-69
2023/08/14 04:45:23;;;;;;;10.68;4.88;;;;;;;18.39;98.10;100950.94;5008272;28;20056;-69
2023/08/14 04:47:51;;;;;;;7.20;4.68;;;;;;;18.40;97.83;100950.78;5010620;28;20076;-69
2023/08/14 04:50:32;;;;;;;7.57;4.22;;;;;;;18.45;97.59;100955.72;5027322;28;20127;-69
2023/08/14 04:52:59;;;;;;;8.13;4.90;;;;;;;18.52;97.42;100954.22;5030233;28;20077;-69
2023/08/14 04:55:26;;;;;;;9.55;5.10;;;;;;;18.58;96.95;100950.19;5016530;28;20049;-69
2023/08/14 04:57:54;;;;;;;8.25;4.25;;;;;;;18.62;96.56;100952.44;5015403;28;20087;-69
2023/08/14 05:00:21;;;;;;;8.45;5.07;;;;;;;18.67;96.21;100950.22;5031134;28;20049;-68
2023/08/14 05:02:49;;;;;;;6.07;4.22;;;;;;;18.74;95.75;100947.06;5036811;28;20065;-69
2023/08/14 05:05:16;;;;;;;8.50;4.07;;;;;;;18.80;95.28;100947.34;5030161;28;20065;-70
2023/08/14 05:07:44;;;;;;;5.72;4.50;;;;;;;18.87;94.85;100951.16;5016594;28;20092;-69
2023/08/14 05:10:11;;;;;;;10.45;4.45;;;;;;;18.92;94.19;100946.25;5000134;28;20061;-69
2023/08/14 05:12:38;;;;;;;7.18;4.90;;;;;;;18.97;94.00;100945.84;5017504;28;20323;-69
2023/08/14 05:15:06;;;;;;;7.13;4.45;;;;;;;19.04;93.59;100948.81;5030380;28;20053;-69
2023/08/14 05:17:34;;;;;;;6.07;4.15;;;;;;;19.12;93.37;100944.47;5025825;28;20077;-69
2023/08/14 05:20:02;;;;;;;9.25;3.83;;;;;;;19.22;92.90;100955.16;5013828;28;20080;-69
2023/08/14 05:22:30;;;;;;;6.93;4.13;;;;;;;19.32;92.19;100949.81;5033542;28;20066;-68
2023/08/14 05:24:57;;;;;;;9.07;4.88;;;;;;;19.38;91.90;100950.13;5017720;28;20122;-68
2023/08/14 05:27:24;;;;;;;8.70;5.10;;;;;;;19.41;91.57;100951.69;5038431;28;20061;-68
2023/08/14 05:29:52;;;;;;;9.68;5.00;;;;;;;19.47;91.39;100956.47;5037380;28;20130;-69
2023/08/14 05:32:20;;;;;;;9.30;5.07;;;;;;;19.49;91.13;100958.00;5034889;28;20562;-66
2023/08/14 05:34:47;;;;;;;14.05;4.80;;;;;;;19.55;90.99;100961.09;5032048;28;20049;-67
2023/08/14 05:37:14;;;;;;;10.65;4.85;;;;;;;19.61;90.77;100966.75;5026246;28;20057;-69
2023/08/14 05:39:42;;;;;;;7.57;4.82;;;;;;;19.64;90.50;100962.97;5015765;28;20053;-69
2023/08/14 05:42:10;;;;;;;7.88;4.60;;;;;;;19.70;90.31;100965.06;5012312;28;20096;-68
2023/08/14 05:44:37;;;;;;;8.55;4.88;;;;;;;19.75;89.59;100964.63;5032108;28;20057;-69
2023/08/14 05:47:04;;;;;;;8.18;4.68;;;;;;;19.81;89.40;100964.06;5015238;28;20103;-72
2023/08/14 05:49:45;;;;;;;9.15;4.78;;;;;;;19.91;88.94;100973.78;5032709;28;20420;-72
2023/08/14 05:52:12;;;;;;;13.25;5.25;;;;;;;19.94;88.77;100970.78;5022645;28;20115;-72
2023/08/14 05:54:40;;;;;;;10.52;4.82;;;;;;;20.01;88.56;100967.56;5012765;28;20110;-72
2023/08/14 05:57:08;;;;;;;8.13;4.55;;;;;;;20.04;88.22;100972.63;5028565;28;20655;-76
2023/08/14 05:59:35;;;;;;;18.65;5.22;;;;;;;20.11;88.12;100979.09;5028470;28;20062;-72
2023/08/14 06:02:03;;;;;;;7.45;4.38;;;;;;;20.20;87.49;100976.38;5027632;28;20144;-73
2023/08/14 06:04:30;;;;;;;9.43;4.43;;;;;;;20.33;87.05;100977.91;5015319;28;20593;-72
2023/08/14 06:06:58;;;;;;;7.80;4.55;;;;;;;20.42;86.16;100985.06;5015091;28;20057;-71
2023/08/14 06:09:28;;;;;;;9.93;4.78;;;;;;;20.52;85.19;100969.00;5010000;28;20046;-71
2023/08/14 06:11:55;;;;;;;10.38;5.10;;;;;;;20.64;84.57;100966.00;5016278;28;20136;-72
2023/08/14 06:14:23;;;;;;;7.78;4.78;;;;;;;20.78;84.03;100978.06;5038856;28;20029;-72
2023/08/14 06:17:41;;;;;;;8.30;4.85;;;;;;;20.88;83.30;100981.53;5012941;28;20107;-73
2023/08/14 06:20:56;;;;;;;5.47;4.13;;;;;;;21.00;82.54;100976.81;5033119;28;20065;-73
2023/08/14 06:23:24;;;;;;;10.95;4.85;;;;;;;21.11;81.72;100971.25;5009902;28;20057;-73
2023/08/14 06:25:51;;;;;;;12.88;4.70;;;;;;;21.21;80.94;100971.22;5013879;28;20148;-70
2023/08/14 06:28:44;;;;;;;9.20;3.90;;;;;;;21.32;80.47;100964.81;5016164;28;20057;-79
2023/08/14 06:31:11;;;;;;;11.45;4.70;;;;;;;21.46;79.32;100980.34;5007977;28;20037;-74
2023/08/14 06:33:41;;;;;;;11.60;5.03;;;;;;;21.53;78.12;100977.94;5000244;28;20056;-74
2023/08/14 06:36:09;;;;;;;8.82;4.40;;;;;;;21.45;78.50;100981.34;5012857;28;20061;-74
2023/08/14 06:38:36;;;;;;;7.72;4.47;;;;;;;21.56;78.66;100983.81;5033736;28;20057;-74
2023/08/14 06:41:04;;;;;;;12.13;4.50;;;;;;;21.68;77.89;100984.41;5000305;28;20049;-74
2023/08/14 06:43:31;;;;;;;15.00;4.97;;;;;;;21.85;77.03;100988.94;5009527;28;20097;-73
2023/08/14 06:45:59;;;;;;;14.45;4.90;;;;;;;21.90;76.70;100985.78;5014862;28;20065;-73
2023/08/14 06:48:30;;;;;;;9.50;4.65;;;;;;;22.04;76.23;100987.91;5033958;28;20452;-73
2023/08/14 06:50:59;;;;;;;13.93;4.82;;;;;;;22.21;75.82;100984.38;5017302;28;20057;-73
2023/08/14 06:53:26;;;;;;;13.65;5.05;;;;;;;22.37;75.27;100980.94;5029534;28;20076;-73
2023/08/14 06:55:55;;;;;;;8.57;4.13;;;;;;;22.47;74.64;100983.53;5017402;28;20071;-73
2023/08/14 06:58:23;;;;;;;8.55;4.55;;;;;;;22.56;74.33;100987.97;4983585;28;20058;-73
2023/08/14 07:00:50;;;;;;;9.88;4.78;;;;;;;22.60;74.10;100986.59;5034861;28;20053;-74
2023/08/14 07:03:23;;;;;;;7.38;4.53;;;;;;;22.62;73.93;100990.00;4997328;28;20048;-74
2023/08/14 07:05:50;;;;;;;13.80;4.60;;;;;;;22.65;72.29;100989.69;5031805;28;20433;-73
2023/08/14 07:08:18;;;;;;;7.72;4.03;;;;;;;22.80;72.28;100989.06;5027858;28;20515;-74
2023/08/14 07:10:46;;;;;;;9.68;3.90;;;;;;;22.97;71.68;100989.00;5029938;28;20111;-73
2023/08/14 07:13:13;;;;;;;15.95;4.55;;;;;;;23.11;70.74;100984.84;5015496;28;20151;-74
2023/08/14 07:15:41;;;;;;;10.43;3.92;;;;;;;23.14;69.16;100984.50;5033997;28;20083;-73
2023/08/14 07:18:09;;;;;;;5.40;3.53;;;;;;;23.30;68.84;100990.94;5002501;28;20100;-73
2023/08/14 07:20:36;;;;;;;10.32;3.45;;;;;;;23.47;68.40;100974.69;4989720;28;20049;-74
2023/08/14 07:23:05;;;;;;;12.38;3.30;;;;;;;23.60;67.29;100976.91;5031974;28;20050;-74
2023/08/14 07:25:33;;;;;;;5.95;3.50;;;;;;;23.62;66.83;100980.25;5031124;28;20100;-73
2023/08/14 07:28:00;;;;;;;14.07;4.13;;;;;;;23.75;67.17;100977.09;5016639;28;20058;-74
2023/08/14 07:30:28;;;;;;;10.10;4.10;;;;;;;23.89;66.75;100975.59;5033634;28;20045;-74
2023/08/14 07:32:55;;;;;;;10.63;3.75;;;;;;;23.96;65.49;100972.06;5015191;28;20053;-74
2023/08/14 07:35:23;;;;;;;6.10;3.22;;;;;;;24.06;65.51;100973.75;5033083;28;20058;-74
2023/08/14 07:37:50;;;;;;;7.15;3.60;;;;;;;24.21;65.12;100975.53;5012480;28;20630;-74
2023/08/14 07:40:18;;;;;;;5.97;3.20;;;;;;;24.18;61.95;100970.53;5028506;28;20049;-71
2023/08/14 07:42:46;;;;;;;9.30;2.90;;;;;;;24.19;62.48;100976.75;5020677;28;20473;-72
2023/08/14 07:45:14;;;;;;;7.78;3.15;;;;;;;24.34;62.03;100976.88;5026926;28;20045;-73
2023/08/14 07:47:41;;;;;;;8.15;3.65;;;;;;;24.38;61.54;100979.09;5025454;28;20088;-71
2023/08/14 07:50:09;;;;;;;7.20;2.65;;;;;;;24.60;61.30;100993.66;4999762;28;20503;-73
2023/08/14 07:52:38;;;;;;;9.15;2.50;;;;;;;24.46;59.78;100984.44;4991173;28;20137;-71
2023/08/14 07:55:05;;;;;;;8.15;2.55;;;;;;;24.64;59.43;100997.69;5012176;28;20060;-73
2023/08/14 07:57:33;;;;;;;6.80;3.13;;;;;;;24.90;59.69;100996.56;5014003;28;20045;-72
2023/08/14 08:00:01;;;;;;;4.18;2.42;;;;;;;24.94;58.25;100995.22;5011679;28;20076;-73
2023/08/14 08:02:30;;;;;;;7.78;3.33;;;;;;;25.04;57.55;100995.84;5012711;28;20058;-72
2023/08/14 08:04:57;;;;;;;7.10;2.33;;;;;;;25.07;57.57;101000.03;5030989;28;20077;-73
2023/08/14 08:07:25;;;;;;;6.32;3.28;;;;;;;25.13;57.49;101002.91;4996340;28;20068;-73
2023/08/14 08:09:53;;;;;;;9.27;3.00;;;;;;;25.19;56.01;101006.75;5030465;28;20115;-73
2023/08/14 08:12:22;;;;;;;4.78;2.15;;;;;;;25.12;56.23;101005.75;5016718;28;20511;-73
2023/08/14 08:14:49;;;;;;;5.72;3.13;;;;;;;25.21;55.19;101016.31;5029620;28;20126;-72
2023/08/14 08:17:17;;;;;;;12.75;2.97;;;;;;;25.22;54.87;101015.31;5026934;28;20444;-72
2023/08/14 08:19:46;;;;;;;6.72;2.25;;;;;;;25.33;55.04;101014.09;5026865;28;20522;-73
2023/08/14 08:22:14;;;;;;;5.47;2.65;;;;;;;25.49;54.97;101007.75;4999607;28;20076;-74
2023/08/14 08:25:31;;;;;;;12.73;3.60;;;;;;;25.56;55.09;101014.09;5025485;28;20103;-74
2023/08/14 08:28:23;;;;;;;6.32;2.20;;;;;;;25.64;54.50;101022.13;5017381;28;20142;-73
2023/08/14 08:30:51;;;;;;;7.35;2.60;;;;;;;25.73;53.23;101004.88;5025703;28;20054;-74
2023/08/14 08:33:18;;;;;;;5.95;2.72;;;;;;;25.81;50.51;101011.28;5030169;28;20073;-74
2023/08/14 08:35:54;;;;;;;7.85;2.65;;;;;;;25.79;50.36;101010.59;4994423;28;20393;-73
2023/08/14 08:38:21;;;;;;;6.07;2.53;;;;;;;25.76;50.75;101011.81;5010202;28;20114;-72
2023/08/14 08:40:49;;;;;;;10.23;2.40;;;;;;;25.94;51.23;101016.91;5031894;28;20068;-72
2023/08/14 08:43:16;;;;;;;5.18;2.20;;;;;;;26.00;51.63;101013.47;5029058;28;20049;-72
2023/08/14 08:45:50;;;;;;;5.90;2.40;;;;;;;26.08;50.29;101004.47;5008222;28;20061;-72
2023/08/14 08:48:21;;;;;;;6.55;2.70;;;;;;;26.21;48.50;101000.13;4992879;28;20061;-72
2023/08/14 08:50:50;;;;;;;4.07;2.50;;;;;;;26.32;48.55;100990.72;5028209;28;20592;-72
2023/08/14 08:53:21;;;;;;;3.90;2.25;;;;;;;26.47;48.67;100994.31;5024431;28;20088;-73
2023/08/14 08:55:49;;;;;;;6.00;2.55;;;;;;;26.61;49.59;100998.03;5029853;28;20377;-72
2023/08/14 08:58:18;;;;;;;4.38;2.47;;;;;;;26.72;49.58;100988.63;5004880;28;20045;-73
2023/08/14 09:00:45;;;;;;;10.43;2.40;;;;;;;26.75;49.49;100993.69;5031494;28;20049;-73
2023/08/14 09:03:13;;;;;;;4.78;2.60;;;;;;;26.76;49.03;100988.06;5016087;28;20103;-73
2023/08/14 09:05:41;;;;;;;4.05;2.45;;;;;;;26.73;48.75;100990.31;5014346;28;20049;-72
2023/08/14 09:08:09;;;;;;;6.55;3.05;;;;;;;26.83;48.38;100995.41;5013482;28;20570;-73
2023/08/14 09:10:36;;;;;;;5.80;2.83;;;;;;;26.73;48.05;100988.44;5017228;28;20050;-73
2023/08/14 09:13:04;;;;;;;6.90;2.30;;;;;;;26.96;47.75;100987.50;5014850;28;20104;-72
2023/08/14 09:15:41;;;;;;;5.93;2.40;;;;;;;27.10;47.18;100988.50;5031675;28;20496;-73
2023/08/14 09:18:12;;;;;;;4.57;2.33;;;;;;;27.11;46.00;100985.66;5033826;28;20107;-73
2023/08/14 09:20:39;;;;;;;6.18;2.30;;;;;;;27.17;45.38;100987.56;5002816;28;20053;-73
2023/08/14 09:23:12;;;;;;;5.10;2.50;;;;;;;27.27;45.60;100982.69;5011884;28;20066;-73
2023/08/14 09:26:03;;;;;;;6.20;2.70;;;;;;;27.32;45.14;100984.81;5033746;28;20068;-73
2023/08/14 09:28:31;;;;;;;7.45;2.40;;;;;;;27.47;45.31;100979.38;5019278;28;20477;-72
2023/08/14 09:31:09;;;;;;;6.78;2.42;;;;;;;27.54;44.73;100984.84;5034839;28;20064;-74
2023/08/14 09:33:38;;;;;;;5.90;2.13;;;;;;;27.56;44.88;100980.06;5018335;28;20096;-73
2023/08/14 09:36:07;;;;;;;3.22;2.33;;;;;;;27.61;45.08;100981.19;5013417;28;20156;-72
2023/08/14 09:38:37;;;;;;;4.28;2.25;;;;;;;27.70;44.84;100977.31;4999101;28;20053;-72
2023/08/14 09:41:05;;;;;;;5.65;2.35;;;;;;;27.72;44.53;100977.16;5031361;28;20036;-72
2023/08/14 09:43:33;;;;;;;3.22;2.03;;;;;;;27.77;44.68;100969.28;5011932;28;20073;-73
2023/08/14 09:46:01;;;;;;;8.95;2.85;;;;;;;27.88;45.80;100976.06;5012233;28;20049;-72
2023/08/14 09:48:42;;;;;;;5.88;2.22;;;;;;;27.83;42.92;100967.66;5020090;28;20062;-72
2023/08/14 09:51:13;;;;;;;3.33;2.05;;;;;;;27.81;43.16;100970.56;5014866;28;20056;-72
2023/08/14 09:53:49;;;;;;;8.05;2.38;;;;;;;27.93;41.64;100968.19;5009678;28;20046;-73
2023/08/14 09:56:18;;;;;;;3.47;2.08;;;;;;;28.07;42.28;100978.06;5010938;28;20115;-73
2023/08/14 09:58:46;;;;;;;3.97;2.00;;;;;;;28.17;42.32;100970.44;5008931;28;20095;-73
2023/08/14 10:01:17;;;;;;;4.63;1.90;;;;;;;28.14;42.31;100962.69;5011136;28;20479;-73
2023/08/14 10:03:51;;;;;;;5.10;2.10;;;;;;;28.26;43.38;100958.41;5011180;28;20058;-73
2023/08/14 10:06:23;;;;;;;2.45;1.73;;;;;;;28.33;44.04;100966.59;5013512;28;20045;-73
2023/08/14 10:09:01;;;;;;;7.18;2.35;;;;;;;28.39;43.66;100970.41;5005035;28;20050;-73
2023/08/14 10:11:30;;;;;;;7.03;2.28;;;;;;;28.44;43.44;100976.91;4994906;28;20165;-73
2023/08/14 10:14:02;;;;;;;4.88;2.50;;;;;;;28.47;43.61;100978.38;5012049;28;20120;-73
2023/08/14 10:16:40;;;;;;;3.65;2.00;;;;;;;28.46;43.99;100982.97;5011270;28;20095;-73
2023/08/14 10:19:12;;;;;;;4.15;2.47;;;;;;;28.59;43.95;100993.00;4998823;28;20046;-74
2023/08/14 10:21:43;;;;;;;3.45;2.15;;;;;;;28.73;43.80;101002.09;5024543;28;20037;-73
2023/08/14 10:24:11;;;;;;;4.32;2.58;;;;;;;28.84;43.36;100995.25;4997483;28;20060;-74
2023/08/14 10:26:38;;;;;;;3.28;2.10;;;;;;;28.96;43.08;101004.50;5011452;28;20107;-74
2023/08/14 10:29:06;;;;;;;5.50;2.10;;;;;;;28.99;43.57;100993.25;4998413;28;20057;-73
2023/08/14 10:31:34;;;;;;;3.05;2.10;;;;;;;29.02;42.31;100990.13;5029700;28;20076;-73
2023/08/14 10:34:01;;;;;;;4.80;1.90;;;;;;;29.04;41.49;100985.34;5032321;28;20057;-73
2023/08/14 10:37:29;;;;;;;8.80;2.53;;;;;;;29.11;41.79;100978.06;5031415;28;20060;-73
2023/08/14 10:40:53;;;;;;;3.40;1.73;;;;;;;29.27;40.30;100982.31;5020823;28;20438;-73
2023/08/14 10:43:26;;;;;;;4.10;2.10;;;;;;;29.29;38.63;100988.34;5009669;28;20064;-73
2023/08/14 10:45:53;;;;;;;5.43;2.25;;;;;;;29.14;39.45;100985.81;5031610;28;20147;-74
2023/08/14 10:48:21;;;;;;;4.95;1.73;;;;;;;29.29;40.00;100982.09;5012925;28;20057;-73
2023/08/14 10:50:49;;;;;;;6.72;2.03;;;;;;;29.42;40.35;100974.00;4999547;28;20192;-73
2023/08/14 10:53:17;;;;;;;2.45;1.80;;;;;;;29.45;40.78;100969.00;5015814;28;20065;-73
2023/08/14 10:55:47;;;;;;;4.40;2.08;;;;;;;29.54;39.96;100969.63;4994230;28;20123;-71
2023/08/14 10:58:40;;;;;;;3.38;1.90;;;;;;;29.52;39.68;100966.28;5011278;28;20053;-74
2023/08/14 11:01:09;;;;;;;5.43;2.05;;;;;;;29.51;38.97;100965.44;5026989;28;20053;-74
2023/08/14 11:04:02;;;;;;;3.53;2.05;;;;;;;29.53;37.40;100965.22;5011689;28;20057;-73
2023/08/14 11:07:00;;;;;;;9.50;2.03;;;;;;;29.76;38.28;100973.00;5001816;28;20072;-74
2023/08/14 11:09:32;;;;;;;3.67;2.08;;;;;;;29.90;37.73;100960.25;5014223;28;20077;-72
2023/08/14 11:12:05;;;;;;;2.85;1.88;;;;;;;29.85;38.36;100963.59;4997295;28;20104;-72
2023/08/14 11:14:40;;;;;;;5.85;2.03;;;;;;;29.96;38.73;100959.44;5002503;28;20053;-72
2023/08/14 11:17:09;;;;;;;4.03;1.70;;;;;;;30.06;38.05;100962.56;5023562;28;20049;-72
2023/08/14 11:19:37;;;;;;;6.70;1.80;;;;;;;30.06;37.53;100961.72;4987901;28;20055;-73
2023/08/14 11:22:05;;;;;;;4.70;2.00;;;;;;;29.88;37.48;100954.22;4996064;28;20115;-73
2023/08/14 11:24:32;;;;;;;5.70;1.92;;;;;;;29.98;37.83;100949.19;5013792;28;20076;-72
2023/08/14 11:27:03;;;;;;;5.07;1.90;;;;;;;30.26;38.08;100935.41;5014571;28;20096;-72
2023/08/14 11:29:30;;;;;;;3.00;1.65;;;;;;;30.46;37.81;100954.38;5031571;28;20493;-72
2023/08/14 11:32:00;;;;;;;5.10;1.80;;;;;;;30.40;37.65;100950.66;5009205;28;20065;-73
2023/08/14 11:34:32;;;;;;;2.95;1.80;;;;;;;30.60;36.94;100950.56;5012942;28;20081;-72
2023/08/14 11:37:02;;;;;;;5.43;2.05;;;;;;;30.66;37.99;100941.56;5029721;28;20523;-72
2023/08/14 11:39:33;;;;;;;1.98;1.48;;;;;;;30.81;37.83;100937.78;5029740;28;20134;-73
2023/08/14 11:42:02;;;;;;;3.47;2.05;;;;;;;30.67;36.96;100931.53;5016058;28;20099;-73
2023/08/14 11:44:30;;;;;;;5.57;1.88;;;;;;;30.89;37.54;100921.19;5033660;28;20095;-73